sensor_id;sensor_type;location;lat;lon;timestamp;temperature;humidity
44886;DHT22;36669;51.428;21.162;2023-01-29T00:02:26;-0.50;99.90
44886;DHT22;36669;51.428;21.162;2023-01-29T00:04:53;-0.60;99.90
44886;DHT22;36669;51.428;21.162;2023-01-29T00:07:21;-0.60;99.90
44886;DHT22;36669;51.428;21.162;2023-01-29T00:09:49;-0.60;99.90
44886;DHT22;36669;51.428;21.162;2023-01-29T00:12:18;-0.60;99.90
44886;DHT22;36669;51.428;21.162;2023-01-29T00:14:46;-0.60;99.90
44886;DHT22;36669;51.428;21.162;2023-01-29T00:17:14;-0.60;99.90
44886;DHT22;36669;51.428;21.162;2023-01-29T00:19:40;-0.60;99.90
44886;DHT22;36669;51.428;21.162;2023-01-29T00:22:07;-0.60;99.90
44886;DHT22;36669;51.428;21.162;2023-01-29T00:24:34;-0.60;99.90
44886;DHT22;36669;51.428;21.162;2023-01-29T00:27:01;-0.60;99.90
44886;DHT22;36669;51.428;21.162;2023-01-29T00:29:31;-0.60;99.90
44886;DHT22;36669;51.428;21.162;2023-01-29T00:31:57;-0.60;99.90
44886;DHT22;36669;51.428;21.162;2023-01-29T00:34:26;-0.60;99.90
44886;DHT22;36669;51.428;21.162;2023-01-29T00:36:52;-0.60;99.90
44886;DHT22;36669;51.428;21.162;2023-01-29T00:39:18;-0.70;99.90
44886;DHT22;36669;51.428;21.162;2023-01-29T00:41:51;-0.70;99.90
44886;DHT22;36669;51.428;21.162;2023-01-29T00:44:35;-0.70;99.90
44886;DHT22;36669;51.428;21.162;2023-01-29T00:47:20;-0.70;99.90
44886;DHT22;36669;51.428;21.162;2023-01-29T00:50:04;-0.70;99.90
44886;DHT22;36669;51.428;21.162;2023-01-29T00:52:31;-0.70;99.90
44886;DHT22;36669;51.428;21.162;2023-01-29T00:54:59;-0.70;99.90
44886;DHT22;36669;51.428;21.162;2023-01-29T00:57:28;-0.70;99.90
44886;DHT22;36669;51.428;21.162;2023-01-29T00:59:54;-0.70;99.90
44886;DHT22;36669;51.428;21.162;2023-01-29T01:02:22;-0.70;99.90
44886;DHT22;36669;51.428;21.162;2023-01-29T01:05:09;-0.80;99.90
44886;DHT22;36669;51.428;21.162;2023-01-29T01:07:39;-0.80;99.90
44886;DHT22;36669;51.428;21.162;2023-01-29T01:10:11;-0.80;99.90
44886;DHT22;36669;51.428;21.162;2023-01-29T01:13:01;-0.80;99.90
44886;DHT22;36669;51.428;21.162;2023-01-29T01:15:37;-0.80;99.90
44886;DHT22;36669;51.428;21.162;2023-01-29T01:18:05;-0.80;99.90
44886;DHT22;36669;51.428;21.162;2023-01-29T01:20:33;-0.80;99.90
44886;DHT22;36669;51.428;21.162;2023-01-29T01:23:02;-0.80;99.90
44886;DHT22;36669;51.428;21.162;2023-01-29T01:25:28;-0.80;99.90
44886;DHT22;36669;51.428;21.162;2023-01-29T01:27:57;-0.90;99.90
44886;DHT22;36669;51.428;21.162;2023-01-29T01:30:24;-0.90;99.90
44886;DHT22;36669;51.428;21.162;2023-01-29T01:32:50;-0.90;99.90
44886;DHT22;36669;51.428;21.162;2023-01-29T01:35:16;-0.90;99.90
44886;DHT22;36669;51.428;21.162;2023-01-29T01:37:44;-0.90;99.90
44886;DHT22;36669;51.428;21.162;2023-01-29T01:40:17;-0.90;99.90
44886;DHT22;36669;51.428;21.162;2023-01-29T01:42:48;-0.90;99.90
44886;DHT22;36669;51.428;21.162;2023-01-29T01:48:22;-0.90;99.90
44886;DHT22;36669;51.428;21.162;2023-01-29T01:51:12;-0.90;99.90
44886;DHT22;36669;51.428;21.162;2023-01-29T01:54:04;-1.00;99.90
44886;DHT22;36669;51.428;21.162;2023-01-29T01:56:39;-1.00;99.90
44886;DHT22;36669;51.428;21.162;2023-01-29T01:59:16;-1.00;99.90
44886;DHT22;36669;51.428;21.162;2023-01-29T02:01:48;-1.00;99.90
44886;DHT22;36669;51.428;21.162;2023-01-29T02:04:20;-1.00;99.90
44886;DHT22;36669;51.428;21.162;2023-01-29T02:07:08;-1.00;99.90
44886;DHT22;36669;51.428;21.162;2023-01-29T02:10:11;-1.00;99.90
44886;DHT22;36669;51.428;21.162;2023-01-29T02:12:38;-1.00;99.90
44886;DHT22;36669;51.428;21.162;2023-01-29T02:15:07;-1.10;99.90
44886;DHT22;36669;51.428;21.162;2023-01-29T02:17:35;-1.00;99.90
44886;DHT22;36669;51.428;21.162;2023-01-29T02:20:24;-1.10;99.90
44886;DHT22;36669;51.428;21.162;2023-01-29T02:28:34;-1.10;99.90
44886;DHT22;36669;51.428;21.162;2023-01-29T02:31:36;-1.10;99.90
44886;DHT22;36669;51.428;21.162;2023-01-29T02:37:35;-1.20;99.90
44886;DHT22;36669;51.428;21.162;2023-01-29T02:40:46;-1.20;99.90
44886;DHT22;36669;51.428;21.162;2023-01-29T02:51:50;-1.30;99.90
44886;DHT22;36669;51.428;21.162;2023-01-29T02:54:44;-1.30;99.90
44886;DHT22;36669;51.428;21.162;2023-01-29T02:57:25;-1.30;99.90
44886;DHT22;36669;51.428;21.162;2023-01-29T03:00:25;-1.30;99.90
44886;DHT22;36669;51.428;21.162;2023-01-29T03:09:10;-1.40;99.90
44886;DHT22;36669;51.428;21.162;2023-01-29T03:11:51;-1.40;99.90
44886;DHT22;36669;51.428;21.162;2023-01-29T03:14:24;-1.40;99.90
44886;DHT22;36669;51.428;21.162;2023-01-29T03:17:13;-1.40;99.90
44886;DHT22;36669;51.428;21.162;2023-01-29T03:19:46;-1.40;99.90
44886;DHT22;36669;51.428;21.162;2023-01-29T03:22:18;-1.40;99.90
44886;DHT22;36669;51.428;21.162;2023-01-29T03:24:56;-1.40;99.90
44886;DHT22;36669;51.428;21.162;2023-01-29T03:27:54;-1.40;99.90
44886;DHT22;36669;51.428;21.162;2023-01-29T03:30:47;-1.50;99.90
44886;DHT22;36669;51.428;21.162;2023-01-29T03:33:51;-1.40;99.90
44886;DHT22;36669;51.428;21.162;2023-01-29T03:36:33;-1.40;99.90
44886;DHT22;36669;51.428;21.162;2023-01-29T03:39:06;-1.50;99.90
44886;DHT22;36669;51.428;21.162;2023-01-29T03:56:17;-1.60;99.90
44886;DHT22;36669;51.428;21.162;2023-01-29T03:58:57;-1.50;99.90
44886;DHT22;36669;51.428;21.162;2023-01-29T04:01:39;-1.50;99.90
44886;DHT22;36669;51.428;21.162;2023-01-29T04:04:35;-1.50;99.90
44886;DHT22;36669;51.428;21.162;2023-01-29T04:07:15;-1.50;99.90
44886;DHT22;36669;51.428;21.162;2023-01-29T04:10:03;-1.50;99.90
44886;DHT22;36669;51.428;21.162;2023-01-29T04:12:48;-1.50;99.90
44886;DHT22;36669;51.428;21.162;2023-01-29T04:15:16;-1.50;99.90
44886;DHT22;36669;51.428;21.162;2023-01-29T04:17:51;-1.50;99.90
44886;DHT22;36669;51.428;21.162;2023-01-29T04:20:18;-1.60;99.90
44886;DHT22;36669;51.428;21.162;2023-01-29T04:22:48;-1.60;99.90
44886;DHT22;36669;51.428;21.162;2023-01-29T04:25:20;-1.60;99.90
44886;DHT22;36669;51.428;21.162;2023-01-29T04:31:04;-1.60;99.90
44886;DHT22;36669;51.428;21.162;2023-01-29T04:33:41;-1.60;99.90
44886;DHT22;36669;51.428;21.162;2023-01-29T04:39:24;-1.60;99.90
44886;DHT22;36669;51.428;21.162;2023-01-29T04:48:21;-1.50;99.90
44886;DHT22;36669;51.428;21.162;2023-01-29T04:51:05;-1.50;99.90
44886;DHT22;36669;51.428;21.162;2023-01-29T04:53:43;-1.50;99.90
44886;DHT22;36669;51.428;21.162;2023-01-29T04:59:23;-1.50;99.90
44886;DHT22;36669;51.428;21.162;2023-01-29T05:01:51;-1.50;99.90
44886;DHT22;36669;51.428;21.162;2023-01-29T05:04:20;-1.50;99.90
44886;DHT22;36669;51.428;21.162;2023-01-29T05:06:49;-1.50;99.90
44886;DHT22;36669;51.428;21.162;2023-01-29T05:09:16;-1.50;99.90
44886;DHT22;36669;51.428;21.162;2023-01-29T05:11:54;-1.50;99.90
44886;DHT22;36669;51.428;21.162;2023-01-29T05:14:24;-1.50;99.90
44886;DHT22;36669;51.428;21.162;2023-01-29T05:17:01;-1.50;99.90
44886;DHT22;36669;51.428;21.162;2023-01-29T05:19:28;-1.50;99.90
44886;DHT22;36669;51.428;21.162;2023-01-29T05:21:56;-1.50;99.90
44886;DHT22;36669;51.428;21.162;2023-01-29T05:24:26;-1.50;99.90
44886;DHT22;36669;51.428;21.162;2023-01-29T05:26:53;-1.50;99.90
44886;DHT22;36669;51.428;21.162;2023-01-29T05:29:45;-1.50;99.90
44886;DHT22;36669;51.428;21.162;2023-01-29T05:32:11;-1.50;99.90
44886;DHT22;36669;51.428;21.162;2023-01-29T05:34:38;-1.50;99.90
44886;DHT22;36669;51.428;21.162;2023-01-29T05:37:05;-1.50;99.90
44886;DHT22;36669;51.428;21.162;2023-01-29T05:39:33;-1.50;99.90
44886;DHT22;36669;51.428;21.162;2023-01-29T05:41:59;-1.40;99.90
44886;DHT22;36669;51.428;21.162;2023-01-29T05:44:25;-1.40;99.90
44886;DHT22;36669;51.428;21.162;2023-01-29T05:46:55;-1.40;99.90
44886;DHT22;36669;51.428;21.162;2023-01-29T05:49:25;-1.40;99.90
44886;DHT22;36669;51.428;21.162;2023-01-29T05:51:52;-1.40;99.90
44886;DHT22;36669;51.428;21.162;2023-01-29T05:54:20;-1.40;99.90
44886;DHT22;36669;51.428;21.162;2023-01-29T05:56:46;-1.30;99.90
44886;DHT22;36669;51.428;21.162;2023-01-29T05:59:14;-1.30;99.90
44886;DHT22;36669;51.428;21.162;2023-01-29T06:01:41;-1.30;99.90
44886;DHT22;36669;51.428;21.162;2023-01-29T06:04:08;-1.30;99.90
44886;DHT22;36669;51.428;21.162;2023-01-29T06:06:36;-1.30;99.90
44886;DHT22;36669;51.428;21.162;2023-01-29T06:09:04;-1.30;99.90
44886;DHT22;36669;51.428;21.162;2023-01-29T06:11:31;-1.30;99.90
44886;DHT22;36669;51.428;21.162;2023-01-29T06:13:59;-1.30;99.90
44886;DHT22;36669;51.428;21.162;2023-01-29T06:16:27;-1.30;99.90
44886;DHT22;36669;51.428;21.162;2023-01-29T06:18:53;-1.30;99.90
44886;DHT22;36669;51.428;21.162;2023-01-29T06:21:20;-1.30;99.90
44886;DHT22;36669;51.428;21.162;2023-01-29T06:23:47;-1.30;99.90
44886;DHT22;36669;51.428;21.162;2023-01-29T06:26:15;-1.20;99.90
44886;DHT22;36669;51.428;21.162;2023-01-29T06:28:42;-1.20;99.90
44886;DHT22;36669;51.428;21.162;2023-01-29T06:31:11;-1.30;99.90
44886;DHT22;36669;51.428;21.162;2023-01-29T06:33:37;-1.30;99.90
44886;DHT22;36669;51.428;21.162;2023-01-29T06:36:06;-1.30;99.90
44886;DHT22;36669;51.428;21.162;2023-01-29T06:38:33;-1.30;99.90
44886;DHT22;36669;51.428;21.162;2023-01-29T06:41:09;-1.20;99.90
44886;DHT22;36669;51.428;21.162;2023-01-29T06:43:39;-1.20;99.90
44886;DHT22;36669;51.428;21.162;2023-01-29T06:46:09;-1.20;99.90
44886;DHT22;36669;51.428;21.162;2023-01-29T06:48:35;-1.20;99.90
44886;DHT22;36669;51.428;21.162;2023-01-29T06:51:06;-1.20;99.90
44886;DHT22;36669;51.428;21.162;2023-01-29T06:53:35;-1.20;99.90
44886;DHT22;36669;51.428;21.162;2023-01-29T06:56:04;-1.20;99.90
44886;DHT22;36669;51.428;21.162;2023-01-29T06:58:32;-1.20;99.90
44886;DHT22;36669;51.428;21.162;2023-01-29T07:01:10;-1.20;99.90
44886;DHT22;36669;51.428;21.162;2023-01-29T07:03:38;-1.20;99.90
44886;DHT22;36669;51.428;21.162;2023-01-29T07:06:08;-1.20;99.90
44886;DHT22;36669;51.428;21.162;2023-01-29T07:08:39;-1.10;99.90
44886;DHT22;36669;51.428;21.162;2023-01-29T07:11:06;-1.10;99.90
44886;DHT22;36669;51.428;21.162;2023-01-29T07:13:32;-1.10;99.90
44886;DHT22;36669;51.428;21.162;2023-01-29T07:16:00;-1.10;99.90
44886;DHT22;36669;51.428;21.162;2023-01-29T07:18:28;-1.10;99.90
44886;DHT22;36669;51.428;21.162;2023-01-29T07:20:56;-1.10;99.90
44886;DHT22;36669;51.428;21.162;2023-01-29T07:23:24;-1.10;99.90
44886;DHT22;36669;51.428;21.162;2023-01-29T07:25:52;-1.00;99.90
44886;DHT22;36669;51.428;21.162;2023-01-29T07:28:19;-1.00;99.90
44886;DHT22;36669;51.428;21.162;2023-01-29T07:30:54;-1.00;99.90
44886;DHT22;36669;51.428;21.162;2023-01-29T07:33:20;-1.00;99.90
44886;DHT22;36669;51.428;21.162;2023-01-29T07:35:47;-1.00;99.90
44886;DHT22;36669;51.428;21.162;2023-01-29T07:38:13;-1.00;99.90
44886;DHT22;36669;51.428;21.162;2023-01-29T07:40:40;-1.00;99.90
44886;DHT22;36669;51.428;21.162;2023-01-29T07:43:08;-1.00;99.90
44886;DHT22;36669;51.428;21.162;2023-01-29T07:45:37;-0.90;99.90
44886;DHT22;36669;51.428;21.162;2023-01-29T07:48:04;-0.90;99.90
44886;DHT22;36669;51.428;21.162;2023-01-29T07:50:31;-0.90;99.90
44886;DHT22;36669;51.428;21.162;2023-01-29T07:52:59;-0.80;99.90
44886;DHT22;36669;51.428;21.162;2023-01-29T07:55:26;-0.90;99.90
44886;DHT22;36669;51.428;21.162;2023-01-29T07:57:56;-0.90;99.90
44886;DHT22;36669;51.428;21.162;2023-01-29T08:00:23;-0.90;99.90
44886;DHT22;36669;51.428;21.162;2023-01-29T08:02:51;-0.80;99.90
44886;DHT22;36669;51.428;21.162;2023-01-29T08:05:18;-0.80;99.90
44886;DHT22;36669;51.428;21.162;2023-01-29T08:07:45;-0.80;99.90
44886;DHT22;36669;51.428;21.162;2023-01-29T08:10:11;-0.80;99.90
44886;DHT22;36669;51.428;21.162;2023-01-29T08:12:37;-0.80;99.90
44886;DHT22;36669;51.428;21.162;2023-01-29T08:15:04;-0.80;99.90
44886;DHT22;36669;51.428;21.162;2023-01-29T08:17:29;-0.80;99.90
44886;DHT22;36669;51.428;21.162;2023-01-29T08:19:56;-0.80;99.90
44886;DHT22;36669;51.428;21.162;2023-01-29T08:22:23;-0.80;99.90
44886;DHT22;36669;51.428;21.162;2023-01-29T08:24:49;-0.90;99.90
44886;DHT22;36669;51.428;21.162;2023-01-29T08:27:16;-0.90;99.90
44886;DHT22;36669;51.428;21.162;2023-01-29T08:29:44;-0.90;99.90
44886;DHT22;36669;51.428;21.162;2023-01-29T08:32:12;-0.80;99.90
44886;DHT22;36669;51.428;21.162;2023-01-29T08:34:39;-0.70;99.90
44886;DHT22;36669;51.428;21.162;2023-01-29T08:37:12;-0.80;99.90
44886;DHT22;36669;51.428;21.162;2023-01-29T08:39:38;-0.80;99.90
44886;DHT22;36669;51.428;21.162;2023-01-29T08:42:08;-0.80;99.90
44886;DHT22;36669;51.428;21.162;2023-01-29T08:44:36;-0.80;99.90
44886;DHT22;36669;51.428;21.162;2023-01-29T08:47:04;-0.70;99.90
44886;DHT22;36669;51.428;21.162;2023-01-29T08:49:31;-0.70;99.90
44886;DHT22;36669;51.428;21.162;2023-01-29T08:51:59;-0.70;99.90
44886;DHT22;36669;51.428;21.162;2023-01-29T08:54:26;-0.70;99.90
44886;DHT22;36669;51.428;21.162;2023-01-29T08:56:53;-0.70;99.90
44886;DHT22;36669;51.428;21.162;2023-01-29T08:59:19;-0.70;99.90
44886;DHT22;36669;51.428;21.162;2023-01-29T09:01:48;-0.70;99.90
44886;DHT22;36669;51.428;21.162;2023-01-29T09:04:15;-0.70;99.90
44886;DHT22;36669;51.428;21.162;2023-01-29T09:06:41;-0.60;99.90
44886;DHT22;36669;51.428;21.162;2023-01-29T09:09:07;-0.60;99.90
44886;DHT22;36669;51.428;21.162;2023-01-29T09:11:34;-0.50;99.90
44886;DHT22;36669;51.428;21.162;2023-01-29T09:14:01;-0.50;99.90
44886;DHT22;36669;51.428;21.162;2023-01-29T09:16:26;-0.40;99.90
44886;DHT22;36669;51.428;21.162;2023-01-29T09:18:55;-0.40;99.90
44886;DHT22;36669;51.428;21.162;2023-01-29T09:21:21;-0.40;99.90
44886;DHT22;36669;51.428;21.162;2023-01-29T09:23:48;-0.40;99.90
44886;DHT22;36669;51.428;21.162;2023-01-29T09:26:15;-0.30;99.90
44886;DHT22;36669;51.428;21.162;2023-01-29T09:28:43;-0.30;99.90
44886;DHT22;36669;51.428;21.162;2023-01-29T09:31:09;-0.40;99.90
44886;DHT22;36669;51.428;21.162;2023-01-29T09:33:36;-0.40;99.90
44886;DHT22;36669;51.428;21.162;2023-01-29T09:36:03;-0.30;99.90
44886;DHT22;36669;51.428;21.162;2023-01-29T09:38:32;-0.40;99.90
44886;DHT22;36669;51.428;21.162;2023-01-29T09:43:57;-0.40;99.90
44886;DHT22;36669;51.428;21.162;2023-01-29T09:46:43;-0.40;99.90
44886;DHT22;36669;51.428;21.162;2023-01-29T09:49:31;-0.30;99.90
44886;DHT22;36669;51.428;21.162;2023-01-29T09:52:04;-0.20;99.90
44886;DHT22;36669;51.428;21.162;2023-01-29T09:54:52;-0.10;99.90
44886;DHT22;36669;51.428;21.162;2023-01-29T09:57:45;-0.20;99.90
44886;DHT22;36669;51.428;21.162;2023-01-29T10:06:20;-0.30;99.90
44886;DHT22;36669;51.428;21.162;2023-01-29T10:23:29;-0.20;99.90
44886;DHT22;36669;51.428;21.162;2023-01-29T10:25:57;-0.30;99.90
44886;DHT22;36669;51.428;21.162;2023-01-29T10:28:42;-0.20;99.90
44886;DHT22;36669;51.428;21.162;2023-01-29T10:31:51;-0.20;99.90
44886;DHT22;36669;51.428;21.162;2023-01-29T10:34:28;-0.20;99.90
44886;DHT22;36669;51.428;21.162;2023-01-29T10:36:56;-0.10;99.90
44886;DHT22;36669;51.428;21.162;2023-01-29T10:39:25;-0.10;99.90
44886;DHT22;36669;51.428;21.162;2023-01-29T10:42:33;-0.10;99.90
44886;DHT22;36669;51.428;21.162;2023-01-29T10:56:54;0.00;99.90
44886;DHT22;36669;51.428;21.162;2023-01-29T10:59:51;0.20;99.90
44886;DHT22;36669;51.428;21.162;2023-01-29T11:02:20;0.20;99.90
44886;DHT22;36669;51.428;21.162;2023-01-29T11:04:48;0.30;99.90
44886;DHT22;36669;51.428;21.162;2023-01-29T11:07:17;0.30;99.90
44886;DHT22;36669;51.428;21.162;2023-01-29T11:12:38;0.20;99.90
44886;DHT22;36669;51.428;21.162;2023-01-29T11:15:29;0.20;99.90
44886;DHT22;36669;51.428;21.162;2023-01-29T11:18:11;0.30;99.90
44886;DHT22;36669;51.428;21.162;2023-01-29T11:20:40;0.20;99.90
44886;DHT22;36669;51.428;21.162;2023-01-29T11:23:31;0.30;99.90
44886;DHT22;36669;51.428;21.162;2023-01-29T11:25:59;0.30;99.90
44886;DHT22;36669;51.428;21.162;2023-01-29T11:28:43;0.30;99.90
44886;DHT22;36669;51.428;21.162;2023-01-29T11:31:38;0.20;99.90
44886;DHT22;36669;51.428;21.162;2023-01-29T11:34:23;0.30;99.90
44886;DHT22;36669;51.428;21.162;2023-01-29T11:36:59;0.20;99.90
44886;DHT22;36669;51.428;21.162;2023-01-29T11:39:27;0.20;99.90
44886;DHT22;36669;51.428;21.162;2023-01-29T11:41:58;0.10;99.90
44886;DHT22;36669;51.428;21.162;2023-01-29T11:45:00;0.10;99.90
44886;DHT22;36669;51.428;21.162;2023-01-29T11:47:29;0.10;99.90
44886;DHT22;36669;51.428;21.162;2023-01-29T11:49:57;0.10;99.90
44886;DHT22;36669;51.428;21.162;2023-01-29T11:52:35;0.20;99.90
44886;DHT22;36669;51.428;21.162;2023-01-29T11:55:27;0.10;99.90
44886;DHT22;36669;51.428;21.162;2023-01-29T11:58:23;0.10;99.90
44886;DHT22;36669;51.428;21.162;2023-01-29T12:00:52;0.20;99.90
44886;DHT22;36669;51.428;21.162;2023-01-29T12:03:39;0.30;99.90
44886;DHT22;36669;51.428;21.162;2023-01-29T12:06:22;0.30;99.90
44886;DHT22;36669;51.428;21.162;2023-01-29T12:08:59;0.20;99.90
44886;DHT22;36669;51.428;21.162;2023-01-29T12:11:30;0.20;99.90
44886;DHT22;36669;51.428;21.162;2023-01-29T12:13:58;0.20;99.90
44886;DHT22;36669;51.428;21.162;2023-01-29T12:16:39;0.20;99.90
44886;DHT22;36669;51.428;21.162;2023-01-29T12:22:50;0.30;99.90
44886;DHT22;36669;51.428;21.162;2023-01-29T12:28:14;0.30;99.90
44886;DHT22;36669;51.428;21.162;2023-01-29T12:31:14;0.30;99.90
44886;DHT22;36669;51.428;21.162;2023-01-29T12:34:04;0.40;99.90
44886;DHT22;36669;51.428;21.162;2023-01-29T12:36:50;0.40;99.90
44886;DHT22;36669;51.428;21.162;2023-01-29T12:39:24;0.40;99.90
44886;DHT22;36669;51.428;21.162;2023-01-29T12:42:11;0.40;99.90
44886;DHT22;36669;51.428;21.162;2023-01-29T12:47:30;0.50;99.90
44886;DHT22;36669;51.428;21.162;2023-01-29T12:50:02;0.40;99.90
44886;DHT22;36669;51.428;21.162;2023-01-29T12:52:36;0.40;99.90
44886;DHT22;36669;51.428;21.162;2023-01-29T12:55:41;0.40;99.90
44886;DHT22;36669;51.428;21.162;2023-01-29T12:58:41;0.40;99.90
44886;DHT22;36669;51.428;21.162;2023-01-29T13:01:49;0.40;99.90
44886;DHT22;36669;51.428;21.162;2023-01-29T13:04:48;0.40;99.90
44886;DHT22;36669;51.428;21.162;2023-01-29T13:07:32;0.40;99.90
44886;DHT22;36669;51.428;21.162;2023-01-29T13:10:09;0.40;99.90
44886;DHT22;36669;51.428;21.162;2023-01-29T13:12:37;0.40;99.90
44886;DHT22;36669;51.428;21.162;2023-01-29T13:15:37;0.50;99.90
44886;DHT22;36669;51.428;21.162;2023-01-29T13:20:59;0.50;99.90
44886;DHT22;36669;51.428;21.162;2023-01-29T13:23:36;0.40;99.90
44886;DHT22;36669;51.428;21.162;2023-01-29T13:26:04;0.40;99.90
44886;DHT22;36669;51.428;21.162;2023-01-29T13:28:33;0.40;99.90
44886;DHT22;36669;51.428;21.162;2023-01-29T13:31:36;0.40;99.90
44886;DHT22;36669;51.428;21.162;2023-01-29T13:34:43;0.40;99.90
44886;DHT22;36669;51.428;21.162;2023-01-29T13:37:45;0.40;99.90
44886;DHT22;36669;51.428;21.162;2023-01-29T13:40:26;0.40;99.90
44886;DHT22;36669;51.428;21.162;2023-01-29T13:42:56;0.50;99.90
44886;DHT22;36669;51.428;21.162;2023-01-29T13:45:45;0.40;99.90
44886;DHT22;36669;51.428;21.162;2023-01-29T13:48:29;0.40;99.90
44886;DHT22;36669;51.428;21.162;2023-01-29T13:51:02;0.40;99.90
44886;DHT22;36669;51.428;21.162;2023-01-29T13:53:36;0.40;99.90
44886;DHT22;36669;51.428;21.162;2023-01-29T13:59:08;0.50;99.90
44886;DHT22;36669;51.428;21.162;2023-01-29T14:04:24;0.40;99.90
44886;DHT22;36669;51.428;21.162;2023-01-29T14:07:01;0.40;99.90
44886;DHT22;36669;51.428;21.162;2023-01-29T14:12:31;0.50;99.90
44886;DHT22;36669;51.428;21.162;2023-01-29T14:15:19;0.50;99.90
44886;DHT22;36669;51.428;21.162;2023-01-29T14:23:33;0.50;99.90
44886;DHT22;36669;51.428;21.162;2023-01-29T14:29:29;0.40;99.90
44886;DHT22;36669;51.428;21.162;2023-01-29T14:32:17;0.50;99.90
44886;DHT22;36669;51.428;21.162;2023-01-29T14:34:59;0.50;99.90
44886;DHT22;36669;51.428;21.162;2023-01-29T14:37:40;0.50;99.90
44886;DHT22;36669;51.428;21.162;2023-01-29T14:40:22;0.50;99.90
44886;DHT22;36669;51.428;21.162;2023-01-29T14:42:56;0.50;99.90
44886;DHT22;36669;51.428;21.162;2023-01-29T14:45:38;0.50;99.90
44886;DHT22;36669;51.428;21.162;2023-01-29T14:48:44;0.40;99.90
44886;DHT22;36669;51.428;21.162;2023-01-29T14:51:16;0.50;99.90
44886;DHT22;36669;51.428;21.162;2023-01-29T14:54:01;0.50;99.90
44886;DHT22;36669;51.428;21.162;2023-01-29T14:56:44;0.50;99.90
44886;DHT22;36669;51.428;21.162;2023-01-29T14:59:19;0.50;99.90
44886;DHT22;36669;51.428;21.162;2023-01-29T15:01:52;0.50;99.90
44886;DHT22;36669;51.428;21.162;2023-01-29T15:04:36;0.50;99.90
44886;DHT22;36669;51.428;21.162;2023-01-29T15:10:46;0.50;99.90
44886;DHT22;36669;51.428;21.162;2023-01-29T15:13:28;0.50;99.90
44886;DHT22;36669;51.428;21.162;2023-01-29T15:16:07;0.50;99.90
44886;DHT22;36669;51.428;21.162;2023-01-29T15:18:39;0.50;99.90
44886;DHT22;36669;51.428;21.162;2023-01-29T15:21:16;0.50;99.90
44886;DHT22;36669;51.428;21.162;2023-01-29T15:23:46;0.50;99.90
44886;DHT22;36669;51.428;21.162;2023-01-29T15:26:20;0.50;99.90
44886;DHT22;36669;51.428;21.162;2023-01-29T15:28:58;0.50;99.90
44886;DHT22;36669;51.428;21.162;2023-01-29T15:31:26;0.40;99.90
44886;DHT22;36669;51.428;21.162;2023-01-29T15:33:55;0.40;99.90
44886;DHT22;36669;51.428;21.162;2023-01-29T15:36:27;0.30;99.90
44886;DHT22;36669;51.428;21.162;2023-01-29T15:39:17;0.40;99.90
44886;DHT22;36669;51.428;21.162;2023-01-29T15:41:48;0.40;99.90
44886;DHT22;36669;51.428;21.162;2023-01-29T15:44:22;0.40;99.90
44886;DHT22;36669;51.428;21.162;2023-01-29T15:46:55;0.30;99.90
44886;DHT22;36669;51.428;21.162;2023-01-29T15:49:44;0.30;99.90
44886;DHT22;36669;51.428;21.162;2023-01-29T15:52:24;0.30;99.90
44886;DHT22;36669;51.428;21.162;2023-01-29T15:54:53;0.30;99.90
44886;DHT22;36669;51.428;21.162;2023-01-29T15:57:28;0.30;99.90
44886;DHT22;36669;51.428;21.162;2023-01-29T15:59:58;0.30;99.90
44886;DHT22;36669;51.428;21.162;2023-01-29T16:02:39;0.20;99.90
44886;DHT22;36669;51.428;21.162;2023-01-29T16:05:12;0.20;99.90
44886;DHT22;36669;51.428;21.162;2023-01-29T16:07:39;0.20;99.90
44886;DHT22;36669;51.428;21.162;2023-01-29T16:10:21;0.20;99.90
44886;DHT22;36669;51.428;21.162;2023-01-29T16:12:52;0.20;99.90
44886;DHT22;36669;51.428;21.162;2023-01-29T16:15:39;0.20;99.90
44886;DHT22;36669;51.428;21.162;2023-01-29T16:18:34;0.20;99.90
44886;DHT22;36669;51.428;21.162;2023-01-29T16:21:08;0.10;99.90
44886;DHT22;36669;51.428;21.162;2023-01-29T16:23:49;0.10;99.90
44886;DHT22;36669;51.428;21.162;2023-01-29T16:26:19;0.10;99.90
44886;DHT22;36669;51.428;21.162;2023-01-29T16:28:47;0.10;99.90
44886;DHT22;36669;51.428;21.162;2023-01-29T16:31:25;0.10;99.90
44886;DHT22;36669;51.428;21.162;2023-01-29T16:33:52;0.00;99.90
44886;DHT22;36669;51.428;21.162;2023-01-29T16:36:22;0.00;99.90
44886;DHT22;36669;51.428;21.162;2023-01-29T16:39:01;0.00;99.90
44886;DHT22;36669;51.428;21.162;2023-01-29T16:41:34;-0.10;99.90
44886;DHT22;36669;51.428;21.162;2023-01-29T16:47:34;-0.10;99.90
44886;DHT22;36669;51.428;21.162;2023-01-29T16:50:33;0.00;99.90
44886;DHT22;36669;51.428;21.162;2023-01-29T16:53:17;0.00;99.90
44886;DHT22;36669;51.428;21.162;2023-01-29T16:55:47;0.00;99.90
44886;DHT22;36669;51.428;21.162;2023-01-29T16:58:20;-0.10;99.90
44886;DHT22;36669;51.428;21.162;2023-01-29T17:00:54;-0.10;99.90
44886;DHT22;36669;51.428;21.162;2023-01-29T17:03:24;-0.10;99.90
44886;DHT22;36669;51.428;21.162;2023-01-29T17:05:53;-0.20;99.90
44886;DHT22;36669;51.428;21.162;2023-01-29T17:08:31;-0.20;99.90
44886;DHT22;36669;51.428;21.162;2023-01-29T17:11:03;-0.30;99.90
44886;DHT22;36669;51.428;21.162;2023-01-29T17:13:43;-0.30;99.90
44886;DHT22;36669;51.428;21.162;2023-01-29T17:16:29;-0.20;99.90
44886;DHT22;36669;51.428;21.162;2023-01-29T17:18:56;-0.30;99.90
44886;DHT22;36669;51.428;21.162;2023-01-29T17:21:23;-0.20;99.90
44886;DHT22;36669;51.428;21.162;2023-01-29T17:23:50;-0.30;99.90
44886;DHT22;36669;51.428;21.162;2023-01-29T17:26:19;-0.30;99.90
44886;DHT22;36669;51.428;21.162;2023-01-29T17:28:49;-0.30;99.90
44886;DHT22;36669;51.428;21.162;2023-01-29T17:31:18;-0.30;99.90
44886;DHT22;36669;51.428;21.162;2023-01-29T17:33:47;-0.30;99.90
44886;DHT22;36669;51.428;21.162;2023-01-29T17:36:16;-0.30;99.90
44886;DHT22;36669;51.428;21.162;2023-01-29T17:38:44;-0.30;99.90
44886;DHT22;36669;51.428;21.162;2023-01-29T17:41:29;-0.30;99.90
44886;DHT22;36669;51.428;21.162;2023-01-29T17:43:57;-0.30;99.90
44886;DHT22;36669;51.428;21.162;2023-01-29T17:46:25;-0.30;99.90
44886;DHT22;36669;51.428;21.162;2023-01-29T17:48:53;-0.40;99.90
44886;DHT22;36669;51.428;21.162;2023-01-29T17:51:19;-0.40;99.90
44886;DHT22;36669;51.428;21.162;2023-01-29T17:53:48;-0.40;99.90
44886;DHT22;36669;51.428;21.162;2023-01-29T17:56:22;-0.30;99.90
44886;DHT22;36669;51.428;21.162;2023-01-29T17:58:52;-0.30;99.90
44886;DHT22;36669;51.428;21.162;2023-01-29T18:01:19;-0.30;99.90
44886;DHT22;36669;51.428;21.162;2023-01-29T18:03:46;-0.30;99.90
44886;DHT22;36669;51.428;21.162;2023-01-29T18:06:26;-0.30;99.90
44886;DHT22;36669;51.428;21.162;2023-01-29T18:08:53;-0.40;99.90
44886;DHT22;36669;51.428;21.162;2023-01-29T18:11:24;-0.30;99.90
44886;DHT22;36669;51.428;21.162;2023-01-29T18:13:51;-0.40;99.90
44886;DHT22;36669;51.428;21.162;2023-01-29T18:16:20;-0.30;99.90
44886;DHT22;36669;51.428;21.162;2023-01-29T18:19:22;-0.40;99.90